createdAt,value
2018-03-21T00:00:52.782Z,1.64
2018-03-21T00:01:52.754Z,1.67
2018-03-21T00:02:52.729Z,1.60
2018-03-21T00:03:52.708Z,1.60
2018-03-21T00:04:52.674Z,1.60
2018-03-21T00:05:52.652Z,1.63
2018-03-21T00:06:52.620Z,1.56
2018-03-21T00:07:52.593Z,1.61
2018-03-21T00:08:52.567Z,1.63
2018-03-21T00:09:52.541Z,1.63
2018-03-21T00:10:52.517Z,1.61
2018-03-21T00:11:52.489Z,1.63
2018-03-21T00:12:52.460Z,1.61
2018-03-21T00:13:52.439Z,1.60
2018-03-21T00:14:52.406Z,1.52
2018-03-21T00:15:52.378Z,1.58
2018-03-21T00:16:52.370Z,1.43
2018-03-21T00:17:52.327Z,1.42
2018-03-21T00:18:52.299Z,1.39
2018-03-21T00:19:52.271Z,1.39
2018-03-21T00:20:52.242Z,1.30
2018-03-21T00:21:52.216Z,1.28
2018-03-21T00:22:52.190Z,1.36
2018-03-21T00:23:52.161Z,1.38
2018-03-21T00:24:52.138Z,1.31
2018-03-21T00:25:52.109Z,1.27
2018-03-21T00:26:52.089Z,1.28
2018-03-21T00:27:52.056Z,1.34
2018-03-21T00:28:52.027Z,1.34
2018-03-21T00:29:52.055Z,1.27
2018-03-21T00:30:51.974Z,1.28
2018-03-21T00:31:51.949Z,1.36
2018-03-21T00:32:51.920Z,1.30
2018-03-21T00:33:51.897Z,1.36
2018-03-21T00:34:51.869Z,1.34
2018-03-21T00:35:51.839Z,1.30
2018-03-21T00:36:51.819Z,1.34
2018-03-21T00:37:51.785Z,1.32
2018-03-21T00:38:51.759Z,1.32
2018-03-21T00:39:51.743Z,1.31
2018-03-21T00:40:51.703Z,1.32
2018-03-21T00:41:51.677Z,1.32
2018-03-21T00:42:51.718Z,1.40
2018-03-21T00:43:51.623Z,1.43
2018-03-21T00:44:51.598Z,1.40
2018-03-21T00:45:51.568Z,1.34
2018-03-21T00:46:51.540Z,1.36
2018-03-21T00:47:51.517Z,1.38
2018-03-21T00:48:51.489Z,1.45
2018-03-21T00:49:51.460Z,1.40
2018-03-21T00:50:51.436Z,1.31
2018-03-21T00:51:51.407Z,1.28
2018-03-21T00:52:51.384Z,1.27
2018-03-21T00:53:51.358Z,1.13
2018-03-21T00:54:51.328Z,1.22
2018-03-21T00:55:51.298Z,1.24
2018-03-21T00:56:51.271Z,1.14
2018-03-21T00:57:51.242Z,1.14
2018-03-21T00:58:51.215Z,1.20
2018-03-21T00:59:51.189Z,1.10
2018-03-21T01:00:51.161Z,1.04
2018-03-21T01:01:51.136Z,1.06
2018-03-21T01:02:51.107Z,1.04
2018-03-21T01:03:51.079Z,1.04
2018-03-21T01:04:51.052Z,1.00
2018-03-21T01:05:51.024Z,1.04
2018-03-21T01:06:50.998Z,1.00
2018-03-21T01:07:50.971Z,0.94
2018-03-21T01:08:50.945Z,0.95
2018-03-21T01:09:50.919Z,0.99
2018-03-21T01:10:50.889Z,0.99
2018-03-21T01:11:50.880Z,0.94
2018-03-21T01:12:50.834Z,1.00
2018-03-21T01:13:50.807Z,1.02
2018-03-21T01:14:50.779Z,1.02
2018-03-21T01:15:50.752Z,1.10
2018-03-21T01:16:50.735Z,1.10
2018-03-21T01:17:50.719Z,1.14
2018-03-21T01:18:50.671Z,1.20
2018-03-21T01:19:50.649Z,1.20
2018-03-21T01:20:50.615Z,1.20
2018-03-21T01:21:50.591Z,1.24
2018-03-21T01:22:50.564Z,1.20
2018-03-21T01:23:50.546Z,1.13
2018-03-21T01:24:50.510Z,1.04
2018-03-21T01:25:50.481Z,1.03
2018-03-21T01:26:50.452Z,1.09
2018-03-21T01:27:50.425Z,1.00
2018-03-21T01:28:50.398Z,0.99
2018-03-21T01:29:50.412Z,0.99
2018-03-21T01:30:50.342Z,0.99
2018-03-21T01:31:50.315Z,1.00
2018-03-21T01:32:50.288Z,0.94
2018-03-21T01:33:50.261Z,0.92
2018-03-21T01:34:50.233Z,0.99
2018-03-21T01:35:50.206Z,0.95
2018-03-21T01:36:50.176Z,0.91
2018-03-21T01:37:50.149Z,0.94
2018-03-21T01:38:50.124Z,0.91
2018-03-21T01:39:50.098Z,0.92
2018-03-21T01:40:50.070Z,0.89
2018-03-21T01:41:50.043Z,0.92
2018-03-21T01:42:50.013Z,0.94
2018-03-21T01:43:49.986Z,0.99
2018-03-21T01:44:49.958Z,0.94
2018-03-21T01:45:49.936Z,0.84
2018-03-21T01:46:49.905Z,0.84
2018-03-21T01:47:49.877Z,0.81
2018-03-21T01:48:49.849Z,0.78
2018-03-21T01:49:49.827Z,0.77
2018-03-21T01:50:49.794Z,0.77
2018-03-21T01:51:49.768Z,0.78
2018-03-21T01:52:49.738Z,0.82
2018-03-21T01:53:49.714Z,0.81
2018-03-21T01:54:49.694Z,0.74
2018-03-21T01:55:49.655Z,0.84
2018-03-21T01:56:49.634Z,0.82
2018-03-21T01:57:49.604Z,0.74
2018-03-21T01:58:49.579Z,0.81
2018-03-21T01:59:49.565Z,0.70
2018-03-21T02:00:49.519Z,0.78
2018-03-21T02:01:49.495Z,0.73
2018-03-21T02:02:49.466Z,0.68
2018-03-21T02:03:49.450Z,0.70
2018-03-21T02:04:49.412Z,0.71
2018-03-21T02:05:49.382Z,0.59
2018-03-21T02:06:49.356Z,0.59
2018-03-21T02:07:49.329Z,0.58
2018-03-21T02:08:49.299Z,0.66
2018-03-21T02:09:49.271Z,0.64
2018-03-21T02:10:49.244Z,0.59
2018-03-21T02:11:49.216Z,0.55
2018-03-21T02:12:49.188Z,0.55
2018-03-21T02:13:49.161Z,0.51
2018-03-21T02:14:49.135Z,0.49
2018-03-21T02:15:49.104Z,0.55
2018-03-21T02:16:49.081Z,0.52
2018-03-21T02:17:49.051Z,0.52
2018-03-21T02:18:49.024Z,0.55
2018-03-21T02:19:48.997Z,0.59
2018-03-21T02:20:48.970Z,0.63
2018-03-21T02:21:48.940Z,0.63
2018-03-21T02:22:49.033Z,0.63
2018-03-21T02:23:48.888Z,0.55
2018-03-21T02:24:48.857Z,0.49
2018-03-21T02:25:48.835Z,0.52
2018-03-21T02:26:48.802Z,0.56
2018-03-21T02:27:48.777Z,0.58
2018-03-21T02:28:48.753Z,0.51
2018-03-21T02:29:48.726Z,0.52
2018-03-21T02:30:48.694Z,0.52
2018-03-21T02:31:48.676Z,0.58
2018-03-21T02:32:48.639Z,0.58
2018-03-21T02:33:48.610Z,0.58
2018-03-21T02:34:48.583Z,0.56
2018-03-21T02:35:48.554Z,0.52
2018-03-21T02:36:48.529Z,0.55
2018-03-21T02:37:48.508Z,0.44
2018-03-21T02:38:48.473Z,0.55
2018-03-21T02:39:48.446Z,0.48
2018-03-21T02:40:48.416Z,0.47
2018-03-21T02:41:48.393Z,0.47
2018-03-21T02:42:48.367Z,0.45
2018-03-21T02:43:48.336Z,0.44
2018-03-21T02:44:48.309Z,0.48
2018-03-21T02:45:48.279Z,0.51
2018-03-21T02:46:48.254Z,0.44
2018-03-21T02:47:48.245Z,0.39
2018-03-21T02:48:48.197Z,0.39
2018-03-21T02:49:48.169Z,0.39
2018-03-21T02:50:48.148Z,0.44
2018-03-21T02:51:48.112Z,0.39
2018-03-21T02:52:48.088Z,0.36
2018-03-21T02:53:48.920Z,0.45
2018-03-21T02:54:48.031Z,0.47
2018-03-21T02:55:48.004Z,0.26
2018-03-21T02:56:47.975Z,0.44
2018-03-21T02:57:47.947Z,0.33
2018-03-21T02:58:47.924Z,0.30
2018-03-21T02:59:47.894Z,0.29
2018-03-21T03:00:47.864Z,0.24
2018-03-21T03:01:47.860Z,0.30
2018-03-21T03:02:47.808Z,0.37
2018-03-21T03:03:47.801Z,0.34
2018-03-21T03:04:47.756Z,0.31
2018-03-21T03:05:47.726Z,0.30
2018-03-21T03:06:47.698Z,0.34
2018-03-21T03:07:47.686Z,0.29
2018-03-21T03:08:47.640Z,0.24
2018-03-21T03:09:47.613Z,0.27
2018-03-21T03:10:47.587Z,0.19
2018-03-21T03:11:47.582Z,0.26
2018-03-21T03:12:47.535Z,0.23
2018-03-21T03:13:47.508Z,0.23
2018-03-21T03:14:47.482Z,0.26
2018-03-21T03:15:47.450Z,0.23
2018-03-21T03:16:47.419Z,0.19
2018-03-21T03:17:47.393Z,0.16
2018-03-21T03:18:47.365Z,0.09
2018-03-21T03:19:47.346Z,0.15
2018-03-21T03:20:47.332Z,0.15
2018-03-21T03:21:47.287Z,0.19
2018-03-21T03:22:47.254Z,0.19
2018-03-21T03:23:47.231Z,0.23
2018-03-21T03:24:47.196Z,0.26
2018-03-21T03:25:47.169Z,0.11
2018-03-21T03:26:47.141Z,0.24
2018-03-21T03:27:47.116Z,0.09
2018-03-21T03:28:47.085Z,0.24
2018-03-21T03:29:47.059Z,0.09
2018-03-21T03:30:47.032Z,0.12
2018-03-21T03:31:47.005Z,0.11
2018-03-21T03:32:46.976Z,0.09
2018-03-21T03:33:46.945Z,0.16
2018-03-21T03:34:46.921Z,0.11
2018-03-21T03:35:46.894Z,0.11
2018-03-21T03:36:46.863Z,0.15
2018-03-21T03:37:46.842Z,0.23
2018-03-21T03:38:46.808Z,0.06
2018-03-21T03:39:46.782Z,0.08
2018-03-21T03:40:46.752Z,0.16
2018-03-21T03:41:46.725Z,0.05
2018-03-21T03:42:46.699Z,0.02
2018-03-21T03:43:46.671Z,0.01
2018-03-21T03:44:46.641Z,0.08
2018-03-21T03:45:46.613Z,0.11
2018-03-21T03:46:46.584Z,0.23
2018-03-21T03:47:46.559Z,0.11
2018-03-21T03:48:46.528Z,0.18
2018-03-21T03:49:46.499Z,0.19
2018-03-21T03:50:46.473Z,0.24
2018-03-21T03:51:46.444Z,0.27
2018-03-21T03:52:46.419Z,0.29
2018-03-21T03:53:46.391Z,0.36
2018-03-21T03:54:46.922Z,0.36
2018-03-21T03:55:46.339Z,0.37
2018-03-21T03:56:46.304Z,0.31
2018-03-21T03:57:46.278Z,0.44
2018-03-21T03:58:46.250Z,0.33
2018-03-21T03:59:46.221Z,0.36
2018-03-21T04:00:46.197Z,0.40
2018-03-21T04:01:46.169Z,0.47
2018-03-21T04:02:46.140Z,0.48
2018-03-21T04:03:46.142Z,0.51
2018-03-21T04:04:46.080Z,0.42
2018-03-21T04:05:46.056Z,0.55
2018-03-21T04:06:46.024Z,0.59
2018-03-21T04:07:45.998Z,0.55
2018-03-21T04:08:45.969Z,0.52
2018-03-21T04:09:45.941Z,0.55
2018-03-21T04:10:45.913Z,0.49
2018-03-21T04:11:45.884Z,0.49
2018-03-21T04:12:45.856Z,0.55
2018-03-21T04:13:45.830Z,0.49
2018-03-21T04:14:45.802Z,0.58
2018-03-21T04:15:45.774Z,0.51
2018-03-21T04:16:45.748Z,0.44
2018-03-21T04:17:45.757Z,0.45
2018-03-21T04:18:45.691Z,0.44
2018-03-21T04:19:45.666Z,0.48
2018-03-21T04:20:45.633Z,0.44
2018-03-21T04:21:45.608Z,0.52
2018-03-21T04:22:45.594Z,0.45
2018-03-21T04:23:45.550Z,0.45
2018-03-21T04:24:45.522Z,0.52
2018-03-21T04:25:45.493Z,0.58
2018-03-21T04:26:45.476Z,0.49
2018-03-21T04:27:45.440Z,0.51
2018-03-21T04:28:45.409Z,0.45
2018-03-21T04:29:45.380Z,0.42
2018-03-21T04:30:45.354Z,0.40
2018-03-21T04:31:45.327Z,0.27
2018-03-21T04:32:45.298Z,0.39
2018-03-21T04:33:45.274Z,0.49
2018-03-21T04:34:45.241Z,0.37
2018-03-21T04:35:45.216Z,0.49
2018-03-21T04:36:45.186Z,0.39
2018-03-21T04:37:45.159Z,0.45
2018-03-21T04:38:45.141Z,0.37
2018-03-21T04:39:45.131Z,0.34
2018-03-21T04:40:45.097Z,0.24
2018-03-21T04:41:45.054Z,0.27
2018-03-21T04:42:45.030Z,0.18
2018-03-21T04:43:45.037Z,0.13
2018-03-21T04:44:45.022Z,0.11
2018-03-21T04:45:44.938Z,0.12
2018-03-21T04:46:44.914Z,0.11
2018-03-21T04:47:44.892Z,0.20
2018-03-21T04:48:44.882Z,0.05
2018-03-21T04:49:44.831Z,0.15
2018-03-21T04:50:44.801Z,0.02
2018-03-21T04:51:44.766Z,0.08
2018-03-21T04:52:44.739Z,0.08
2018-03-21T04:53:44.709Z,0.02
2018-03-21T04:54:44.715Z,-0.06
2018-03-21T04:55:44.655Z,-0.05
2018-03-21T04:56:44.624Z,-0.05
2018-03-21T04:57:44.606Z,-0.03
2018-03-21T04:58:44.581Z,-0.09
2018-03-21T04:59:44.543Z,-0.12
2018-03-21T05:00:45.531Z,-0.10
2018-03-21T05:01:46.046Z,-0.13
2018-03-21T05:02:44.458Z,-0.09
2018-03-21T05:03:44.434Z,-0.13
2018-03-21T05:04:44.401Z,-0.12
2018-03-21T05:05:44.382Z,-0.21
2018-03-21T05:06:44.345Z,-0.09
2018-03-21T05:07:44.333Z,-0.07
2018-03-21T05:08:44.288Z,-0.06
2018-03-21T05:09:44.321Z,-0.07
2018-03-21T05:10:44.314Z,-0.07
2018-03-21T05:11:44.204Z,-0.06
2018-03-21T05:12:44.228Z,-0.07
2018-03-21T05:13:44.149Z,-0.07
2018-03-21T05:14:44.118Z,-0.09
2018-03-21T05:15:44.092Z,-0.10
2018-03-21T05:16:44.074Z,-0.09
2018-03-21T05:17:44.037Z,-0.13
2018-03-21T05:18:44.027Z,-0.12
2018-03-21T05:19:44.008Z,-0.13
2018-03-21T05:20:43.966Z,-0.21
2018-03-21T05:21:44.058Z,-0.24
2018-03-21T05:22:43.896Z,-0.07
2018-03-21T05:23:43.866Z,-0.10
2018-03-21T05:24:43.880Z,-0.09
2018-03-21T05:25:43.811Z,-0.05
2018-03-21T05:26:43.784Z,-0.05
2018-03-21T05:27:43.788Z,0.02
2018-03-21T05:28:43.726Z,0.06
2018-03-21T05:29:43.710Z,0.08
2018-03-21T05:30:43.684Z,0.11
2018-03-21T05:31:43.641Z,0.05
2018-03-21T05:32:43.612Z,0.02
2018-03-21T05:33:43.639Z,-0.03
2018-03-21T05:34:43.556Z,0.00
2018-03-21T05:35:43.528Z,0.01
2018-03-21T05:36:43.500Z,0.01
2018-03-21T05:37:43.517Z,0.02
2018-03-21T05:38:43.448Z,0.01
2018-03-21T05:39:43.416Z,0.06
2018-03-21T05:40:43.386Z,-0.02
2018-03-21T05:41:43.359Z,0.00
2018-03-21T05:42:43.331Z,0.02
2018-03-21T05:43:43.350Z,-0.03
2018-03-21T05:44:43.275Z,0.06
2018-03-21T05:45:43.246Z,0.06
2018-03-21T05:46:43.218Z,0.06
2018-03-21T05:47:43.189Z,0.06
2018-03-21T05:48:43.167Z,0.06
2018-03-21T05:49:44.136Z,0.00
2018-03-21T05:50:43.103Z,0.01
2018-03-21T05:51:43.117Z,0.09
2018-03-21T05:52:44.103Z,0.08
2018-03-21T05:53:43.028Z,0.00
2018-03-21T05:54:42.992Z,0.16
2018-03-21T05:55:42.976Z,0.01
2018-03-21T05:56:42.938Z,0.13
2018-03-21T05:57:42.909Z,0.16
2018-03-21T05:58:42.881Z,0.09
2018-03-21T05:59:42.850Z,0.13
2018-03-21T06:00:42.829Z,0.13
2018-03-21T06:01:42.793Z,0.13
2018-03-21T06:02:42.768Z,0.24
2018-03-21T06:03:42.738Z,0.23
2018-03-21T06:04:42.708Z,0.20
2018-03-21T06:05:42.684Z,0.08
2018-03-21T06:06:42.657Z,0.08
2018-03-21T06:07:42.627Z,0.08
2018-03-21T06:08:42.635Z,0.11
2018-03-21T06:09:42.632Z,0.15
2018-03-21T06:10:42.561Z,0.20
2018-03-21T06:11:42.514Z,0.09
2018-03-21T06:12:42.488Z,0.20
2018-03-21T06:13:42.518Z,0.15
2018-03-21T06:14:42.429Z,0.23
2018-03-21T06:15:42.402Z,0.23
2018-03-21T06:16:42.372Z,0.24
2018-03-21T06:17:42.961Z,0.24
2018-03-21T06:18:42.321Z,0.29
2018-03-21T06:19:42.293Z,0.24
2018-03-21T06:20:42.259Z,0.33
2018-03-21T06:21:42.233Z,0.37
2018-03-21T06:22:42.206Z,0.34
2018-03-21T06:23:42.175Z,0.42
2018-03-21T06:24:42.150Z,0.34
2018-03-21T06:25:42.121Z,0.39
2018-03-21T06:26:42.107Z,0.30
2018-03-21T06:27:42.065Z,0.44
2018-03-21T06:28:42.040Z,0.40
2018-03-21T06:29:42.010Z,0.44
2018-03-21T06:30:41.982Z,0.42
2018-03-21T06:31:41.961Z,0.45
2018-03-21T06:32:41.932Z,0.40
2018-03-21T06:33:41.900Z,0.47
2018-03-21T06:34:41.870Z,0.26
2018-03-21T06:35:41.843Z,0.31
2018-03-21T06:36:41.814Z,0.30
2018-03-21T06:37:41.785Z,0.47
2018-03-21T06:38:41.757Z,0.47
2018-03-21T06:39:41.735Z,0.42
2018-03-21T06:40:41.702Z,0.39
2018-03-21T06:41:41.673Z,0.37
2018-03-21T06:42:41.652Z,0.39
2018-03-21T06:43:41.618Z,0.48
2018-03-21T06:44:41.651Z,0.45
2018-03-21T06:45:41.563Z,0.39
2018-03-21T06:46:41.536Z,0.47
2018-03-21T06:47:41.507Z,0.40
2018-03-21T06:48:41.479Z,0.42
2018-03-21T06:49:41.453Z,0.44
2018-03-21T06:50:41.423Z,0.42
2018-03-21T06:51:41.396Z,0.48
2018-03-21T06:52:41.365Z,0.55
2018-03-21T06:53:41.340Z,0.51
2018-03-21T06:54:41.314Z,0.52
2018-03-21T06:55:41.290Z,0.61
2018-03-21T06:56:41.268Z,0.58
2018-03-21T06:57:41.228Z,0.64
2018-03-21T06:58:41.211Z,0.68
2018-03-21T06:59:41.183Z,0.67
2018-03-21T07:00:41.146Z,0.71
2018-03-21T07:01:41.121Z,0.71
2018-03-21T07:02:41.089Z,0.68
2018-03-21T07:03:41.096Z,0.81
2018-03-21T07:04:41.037Z,0.77
2018-03-21T07:05:41.112Z,0.74
2018-03-21T07:06:40.987Z,0.84
2018-03-21T07:07:40.998Z,0.82
2018-03-21T07:08:40.926Z,0.94
2018-03-21T07:09:40.921Z,0.89
2018-03-21T07:10:40.871Z,0.78
2018-03-21T07:11:40.840Z,0.84
2018-03-21T07:12:40.811Z,0.77
2018-03-21T07:13:40.788Z,0.77
2018-03-21T07:14:40.760Z,0.74
2018-03-21T07:15:40.730Z,0.81
2018-03-21T07:16:40.701Z,0.70
2018-03-21T07:17:40.678Z,0.70
2018-03-21T07:18:40.945Z,0.71
2018-03-21T07:19:40.626Z,0.78
2018-03-21T07:20:40.590Z,0.76
2018-03-21T07:21:40.564Z,0.81
2018-03-21T07:22:40.535Z,0.71
2018-03-21T07:23:40.509Z,0.82
2018-03-21T07:24:40.480Z,0.91
2018-03-21T07:25:40.455Z,1.00
2018-03-21T07:26:40.437Z,0.91
2018-03-21T07:27:40.400Z,0.92
2018-03-21T07:28:40.372Z,0.89
2018-03-21T07:29:40.343Z,0.95
2018-03-21T07:30:40.316Z,1.02
2018-03-21T07:31:40.298Z,1.04
2018-03-21T07:32:40.260Z,1.04
2018-03-21T07:33:40.235Z,1.04
2018-03-21T07:34:40.209Z,1.14
2018-03-21T07:35:40.182Z,1.25
2018-03-21T07:36:40.168Z,1.27
2018-03-21T07:37:40.125Z,1.28
2018-03-21T07:38:40.098Z,1.30
2018-03-21T07:39:40.080Z,1.32
2018-03-21T07:40:40.046Z,1.36
2018-03-21T07:41:40.022Z,1.32
2018-03-21T07:42:39.990Z,1.31
2018-03-21T07:43:39.973Z,1.42
2018-03-21T07:44:39.931Z,1.38
2018-03-21T07:45:39.909Z,1.38
2018-03-21T07:46:39.895Z,1.50
2018-03-21T07:47:39.851Z,1.36
2018-03-21T07:48:39.826Z,1.38
2018-03-21T07:49:39.795Z,1.46
2018-03-21T07:50:39.772Z,1.43
2018-03-21T07:51:39.744Z,1.60
2018-03-21T07:52:39.712Z,1.58
2018-03-21T07:53:39.686Z,1.63
2018-03-21T07:54:39.660Z,1.64
2018-03-21T07:55:39.635Z,1.63
2018-03-21T07:56:39.626Z,1.64
2018-03-21T07:57:39.578Z,1.66
2018-03-21T07:58:39.558Z,1.64
2018-03-21T07:59:39.526Z,1.67
2018-03-21T08:00:39.544Z,1.68
2018-03-21T08:01:39.470Z,1.78
2018-03-21T08:02:39.440Z,1.81
2018-03-21T08:03:39.415Z,1.89
2018-03-21T08:04:39.389Z,1.86
2018-03-21T08:05:39.405Z,1.89
2018-03-21T08:06:39.339Z,1.88
2018-03-21T08:07:39.309Z,1.85
2018-03-21T08:08:39.280Z,2.04
2018-03-21T08:09:39.260Z,2.03
2018-03-21T08:10:39.228Z,2.00
2018-03-21T08:11:39.200Z,2.01
2018-03-21T08:12:39.174Z,2.00
2018-03-21T08:13:39.145Z,1.97
2018-03-21T08:14:39.119Z,1.89
2018-03-21T08:15:39.094Z,1.88
2018-03-21T08:16:39.066Z,1.85
2018-03-21T08:17:39.040Z,1.92
2018-03-21T08:18:39.015Z,2.04
2018-03-21T08:19:39.039Z,1.95
2018-03-21T08:20:38.957Z,2.04
2018-03-21T08:21:38.942Z,1.98
2018-03-21T08:22:38.906Z,2.03
2018-03-21T08:23:38.878Z,2.07
2018-03-21T08:24:38.851Z,2.07
2018-03-21T08:25:38.823Z,2.10
2018-03-21T08:26:38.798Z,2.22
2018-03-21T08:27:38.770Z,2.18
2018-03-21T08:28:38.743Z,2.18
2018-03-21T08:29:38.717Z,2.33
2018-03-21T08:30:38.690Z,2.34
2018-03-21T08:31:38.668Z,2.25
2018-03-21T08:32:38.638Z,2.32
2018-03-21T08:33:38.609Z,2.32
2018-03-21T08:34:38.607Z,2.30
2018-03-21T08:35:38.558Z,2.32
2018-03-21T08:36:38.529Z,2.28
2018-03-21T08:37:38.505Z,2.25
2018-03-21T08:38:38.478Z,2.15
2018-03-21T08:39:38.450Z,2.30
2018-03-21T08:40:38.425Z,2.34
2018-03-21T08:41:38.398Z,2.32
2018-03-21T08:42:38.370Z,2.43
2018-03-21T08:43:38.345Z,2.50
2018-03-21T08:44:38.317Z,2.54
2018-03-21T08:45:38.292Z,2.55
2018-03-21T08:46:38.265Z,2.69
2018-03-21T08:47:38.239Z,2.68
2018-03-21T08:48:38.211Z,2.79
2018-03-21T08:49:38.240Z,2.88
2018-03-21T08:50:38.909Z,2.88
2018-03-21T08:51:38.135Z,2.90
2018-03-21T08:52:38.109Z,2.85
2018-03-21T08:53:38.079Z,2.98
2018-03-21T08:54:38.053Z,3.05
2018-03-21T08:55:38.031Z,3.12
2018-03-21T08:56:38.001Z,3.09
2018-03-21T08:57:37.976Z,3.08
2018-03-21T08:58:37.951Z,2.94
2018-03-21T08:59:37.927Z,3.12
2018-03-21T09:00:37.902Z,3.09
2018-03-21T09:01:37.903Z,3.24
2018-03-21T09:02:37.846Z,3.22
2018-03-21T09:03:37.820Z,3.33
2018-03-21T09:04:37.790Z,3.33
2018-03-21T09:05:37.766Z,3.37
2018-03-21T09:06:37.741Z,3.45
2018-03-21T09:07:37.714Z,3.55
2018-03-21T09:08:37.687Z,3.53
2018-03-21T09:09:37.669Z,3.63
2018-03-21T09:10:37.638Z,3.73
2018-03-21T09:11:37.611Z,3.82
2018-03-21T09:12:37.640Z,3.91
2018-03-21T09:13:37.559Z,4.10
2018-03-21T09:14:37.533Z,4.18
2018-03-21T09:15:37.508Z,4.07
2018-03-21T09:16:37.484Z,4.03
2018-03-21T09:17:37.458Z,4.03
2018-03-21T09:18:37.431Z,4.12
2018-03-21T09:19:37.405Z,4.10
2018-03-21T09:20:37.393Z,4.30
2018-03-21T09:21:37.360Z,4.46
2018-03-21T09:22:37.329Z,4.63
2018-03-21T09:23:37.305Z,4.67
2018-03-21T09:24:37.279Z,4.52
2018-03-21T09:25:37.253Z,4.39
2018-03-21T09:26:37.232Z,4.30
2018-03-21T09:27:37.211Z,4.30
2018-03-21T09:28:37.179Z,4.32
2018-03-21T09:29:37.152Z,4.25
2018-03-21T09:30:37.129Z,4.13
2018-03-21T09:31:37.104Z,4.20
2018-03-21T09:32:37.078Z,4.32
2018-03-21T09:33:37.053Z,4.36
2018-03-21T09:34:37.031Z,4.32
2018-03-21T09:35:37.004Z,4.34
2018-03-21T09:36:36.980Z,4.32
2018-03-21T09:37:36.957Z,4.36
2018-03-21T09:38:36.928Z,4.31
2018-03-21T09:39:36.904Z,4.32
2018-03-21T09:40:36.879Z,4.40
2018-03-21T09:41:36.852Z,4.42
2018-03-21T09:42:36.827Z,4.50
2018-03-21T09:43:36.804Z,4.57
2018-03-21T09:44:36.779Z,4.45
2018-03-21T09:45:36.757Z,4.40
2018-03-21T09:46:36.730Z,4.57
2018-03-21T09:47:36.703Z,4.58
2018-03-21T09:48:36.712Z,4.68
2018-03-21T09:49:36.652Z,4.67
2018-03-21T09:50:36.628Z,4.64
2018-03-21T09:51:36.972Z,4.70
2018-03-21T09:52:36.584Z,4.84
2018-03-21T09:53:36.555Z,4.74
2018-03-21T09:54:36.529Z,4.76
2018-03-21T09:55:36.533Z,4.75
2018-03-21T09:56:36.482Z,4.61
2018-03-21T09:57:36.454Z,4.68
2018-03-21T09:58:36.433Z,4.71
2018-03-21T09:59:36.408Z,4.61
2018-03-21T10:00:36.388Z,4.63
2018-03-21T10:01:36.356Z,4.56
2018-03-21T10:02:36.330Z,4.67
2018-03-21T10:03:36.304Z,4.66
2018-03-21T10:04:36.281Z,4.60
2018-03-21T10:05:36.255Z,4.63
2018-03-21T10:06:36.234Z,4.70
2018-03-21T10:07:36.214Z,4.75
2018-03-21T10:08:36.181Z,4.78
2018-03-21T10:09:36.158Z,4.83
2018-03-21T10:10:36.132Z,4.84
2018-03-21T10:11:36.108Z,4.86
2018-03-21T10:12:36.084Z,4.86
2018-03-21T10:13:36.056Z,4.97
2018-03-21T10:14:36.035Z,5.22
2018-03-21T10:15:36.007Z,5.33
2018-03-21T10:16:36.003Z,5.37
2018-03-21T10:17:35.960Z,5.40
2018-03-21T10:18:35.934Z,5.40
2018-03-21T10:19:35.920Z,5.41
2018-03-21T10:20:35.885Z,5.41
2018-03-21T10:21:35.860Z,5.55
2018-03-21T10:22:35.839Z,5.56
2018-03-21T10:23:35.813Z,5.61
2018-03-21T10:24:35.794Z,5.69
2018-03-21T10:25:35.762Z,5.67
2018-03-21T10:26:35.739Z,5.72
2018-03-21T10:27:35.716Z,5.70
2018-03-21T10:28:35.689Z,5.72
2018-03-21T10:29:37.545Z,5.55
2018-03-21T10:30:35.642Z,5.52
2018-03-21T10:31:35.616Z,5.31
2018-03-21T10:32:35.596Z,5.23
2018-03-21T10:33:35.567Z,5.29
2018-03-21T10:34:35.579Z,5.13
2018-03-21T10:35:35.520Z,5.10
2018-03-21T10:36:35.493Z,4.98
2018-03-21T10:37:35.471Z,4.78
2018-03-21T10:38:35.448Z,4.78
2018-03-21T10:39:35.419Z,4.71
2018-03-21T10:40:35.395Z,4.70
2018-03-21T10:41:35.373Z,4.76
2018-03-21T10:42:35.348Z,6.26
2018-03-21T10:43:35.322Z,7.44
2018-03-21T10:44:35.325Z,7.25
2018-03-21T10:45:35.273Z,6.77
2018-03-21T10:46:35.252Z,6.36
2018-03-21T10:47:35.225Z,6.02
2018-03-21T10:48:35.206Z,5.83
2018-03-21T10:49:35.183Z,5.79
2018-03-21T10:50:35.159Z,5.69
2018-03-21T10:51:35.131Z,5.56
2018-03-21T10:52:38.914Z,5.38
2018-03-21T10:53:35.081Z,5.22
2018-03-21T10:54:35.097Z,5.15
2018-03-21T10:55:35.035Z,5.16
2018-03-21T10:56:35.010Z,5.19
2018-03-21T10:57:34.994Z,5.19
2018-03-21T10:58:34.963Z,5.02
2018-03-21T10:59:34.939Z,4.89
2018-03-21T11:00:34.917Z,4.84
2018-03-21T11:01:34.891Z,4.71
2018-03-21T11:02:34.868Z,4.74
2018-03-21T11:03:34.845Z,4.71
2018-03-21T11:04:34.819Z,4.48
2018-03-21T11:05:34.796Z,4.49
2018-03-21T11:06:36.562Z,4.53
2018-03-21T11:07:34.772Z,4.43
2018-03-21T11:08:34.721Z,4.38
2018-03-21T11:09:34.702Z,4.34
2018-03-21T11:10:34.673Z,4.30
2018-03-21T11:11:34.668Z,4.34
2018-03-21T11:12:34.626Z,4.20
2018-03-21T11:13:34.660Z,4.21
2018-03-21T11:14:34.584Z,4.20
2018-03-21T11:15:34.550Z,4.31
2018-03-21T11:16:34.524Z,4.30
2018-03-21T11:17:34.499Z,4.32
2018-03-21T11:18:34.475Z,4.42
2018-03-21T11:19:34.451Z,4.84
2018-03-21T11:20:34.425Z,5.61
2018-03-21T11:21:34.402Z,5.58
2018-03-21T11:22:34.376Z,5.70
2018-03-21T11:23:34.851Z,5.99
2018-03-21T11:24:34.330Z,6.17
2018-03-21T11:25:34.305Z,6.12
2018-03-21T11:26:34.285Z,6.05
2018-03-21T11:27:34.253Z,5.98
2018-03-21T11:28:34.231Z,5.99
2018-03-21T11:29:34.204Z,5.64
2018-03-21T11:30:34.184Z,5.69
2018-03-21T11:31:34.158Z,5.69
2018-03-21T11:32:34.132Z,5.67
2018-03-21T11:33:34.110Z,5.52
2018-03-21T11:34:34.087Z,5.38
2018-03-21T11:35:34.065Z,5.34
2018-03-21T11:36:34.037Z,5.25
2018-03-21T11:37:34.017Z,5.20
2018-03-21T11:38:33.992Z,5.22
2018-03-21T11:39:33.972Z,5.12
2018-03-21T11:40:33.949Z,5.01
2018-03-21T11:41:33.921Z,4.89
2018-03-21T11:42:33.899Z,4.76
2018-03-21T11:43:33.873Z,4.83
2018-03-21T11:44:33.849Z,4.84
2018-03-21T11:45:33.827Z,4.84
2018-03-21T11:46:33.803Z,4.84
2018-03-21T11:47:33.785Z,4.74
2018-03-21T11:48:33.752Z,4.71
2018-03-21T11:49:33.768Z,4.56
2018-03-21T11:50:33.705Z,4.57
2018-03-21T11:51:33.684Z,4.58
2018-03-21T11:52:33.657Z,4.57
2018-03-21T11:53:33.631Z,4.67
2018-03-21T11:54:33.614Z,4.71
2018-03-21T11:55:33.586Z,4.64
2018-03-21T11:56:33.559Z,4.66
2018-03-21T11:57:33.537Z,4.58
2018-03-21T11:58:33.510Z,4.63
2018-03-21T11:59:33.497Z,4.53
2018-03-21T12:00:33.462Z,4.61
2018-03-21T12:01:33.438Z,4.43
2018-03-21T12:02:33.415Z,4.39
2018-03-21T12:03:33.388Z,4.40
2018-03-21T12:04:33.369Z,4.45
2018-03-21T12:05:33.339Z,4.63
2018-03-21T12:06:33.314Z,4.49
2018-03-21T12:07:33.290Z,4.53
2018-03-21T12:08:33.282Z,4.53
2018-03-21T12:09:33.245Z,4.68
2018-03-21T12:10:33.226Z,4.75
2018-03-21T12:11:33.193Z,4.71
2018-03-21T12:12:33.165Z,4.67
2018-03-21T12:13:33.140Z,4.75
2018-03-21T12:14:33.120Z,4.63
2018-03-21T12:15:33.091Z,4.70
2018-03-21T12:16:33.065Z,4.70
2018-03-21T12:17:33.040Z,4.71
2018-03-21T12:18:33.019Z,4.71
2018-03-21T12:19:32.992Z,4.71
2018-03-21T12:20:32.966Z,4.71
2018-03-21T12:21:32.947Z,4.56
2018-03-21T12:22:32.917Z,4.53
2018-03-21T12:23:32.892Z,4.40
2018-03-21T12:24:32.865Z,4.16
2018-03-21T12:25:32.840Z,4.21
2018-03-21T12:26:32.824Z,4.18
2018-03-21T12:27:32.793Z,4.12
2018-03-21T12:28:32.764Z,4.28
2018-03-21T12:29:32.740Z,4.32
2018-03-21T12:30:32.721Z,4.31
2018-03-21T12:31:32.692Z,4.25
2018-03-21T12:32:32.665Z,4.24
2018-03-21T12:33:32.641Z,4.21
2018-03-21T12:34:32.617Z,4.14
2018-03-21T12:35:32.591Z,4.10
2018-03-21T12:36:32.565Z,4.14
2018-03-21T12:37:32.548Z,4.12
2018-03-21T12:38:32.514Z,4.06
2018-03-21T12:39:32.490Z,4.12
2018-03-21T12:40:32.511Z,4.14
2018-03-21T12:41:32.440Z,4.21
2018-03-21T12:42:32.414Z,4.24
2018-03-21T12:43:32.390Z,4.20
2018-03-21T12:44:32.380Z,4.21
2018-03-21T12:45:32.338Z,4.21
2018-03-21T12:46:32.384Z,4.30
2018-03-21T12:47:32.365Z,4.32
2018-03-21T12:48:32.264Z,4.32
2018-03-21T12:49:32.240Z,4.34
2018-03-21T12:50:32.221Z,4.39
2018-03-21T12:51:32.185Z,4.36
2018-03-21T12:52:32.160Z,4.36
2018-03-21T12:53:32.134Z,4.36
2018-03-21T12:54:32.109Z,4.36
2018-03-21T12:55:32.873Z,4.48
2018-03-21T12:56:32.057Z,4.56
2018-03-21T12:57:33.644Z,4.95
2018-03-21T12:58:32.006Z,5.31
2018-03-21T12:59:32.038Z,5.58
2018-03-21T13:00:32.031Z,7.19
2018-03-21T13:01:31.941Z,8.20
2018-03-21T13:02:32.660Z,9.21
2018-03-21T13:03:31.950Z,9.64
2018-03-21T13:04:31.860Z,9.81
2018-03-21T13:05:31.898Z,9.66
2018-03-21T13:06:31.830Z,9.91
2018-03-21T13:07:31.793Z,10.21
2018-03-21T13:08:31.764Z,11.04
2018-03-21T13:09:31.794Z,11.02
2018-03-21T13:10:31.722Z,11.97
2018-03-21T13:11:31.705Z,11.86
2018-03-21T13:12:31.697Z,11.95
2018-03-21T13:13:31.697Z,12.50
2018-03-21T13:14:31.669Z,13.28
2018-03-21T13:15:31.626Z,13.31
2018-03-21T13:16:31.668Z,13.08